createdAt,value
2018-03-28T00:01:47.943Z,7.00
2018-03-28T00:04:14.121Z,7.00
2018-03-28T00:06:40.254Z,7.10
2018-03-28T00:09:07.134Z,7.10
2018-03-28T00:11:35.408Z,7.10
2018-03-28T00:14:01.754Z,7.10
2018-03-28T00:16:35.012Z,7.10
2018-03-28T00:19:02.599Z,7.00
2018-03-28T00:21:28.743Z,7.00
2018-03-28T00:23:54.832Z,7.00
2018-03-28T00:26:20.931Z,7.00
2018-03-28T00:28:47.807Z,7.10
2018-03-28T00:31:13.931Z,7.10
2018-03-28T00:33:40.108Z,7.10
2018-03-28T00:36:06.220Z,7.10
2018-03-28T00:38:33.065Z,7.20
2018-03-28T00:40:59.970Z,7.20
2018-03-28T00:43:26.083Z,7.20
2018-03-28T00:45:55.592Z,7.20
2018-03-28T00:48:21.997Z,7.10
2018-03-28T00:50:48.154Z,7.20
2018-03-28T00:53:14.352Z,7.20
2018-03-28T00:55:40.451Z,7.20
2018-03-28T00:58:07.358Z,7.20
2018-03-28T01:00:33.475Z,7.20
2018-03-28T01:02:59.665Z,7.20
2018-03-28T01:05:25.784Z,7.20
2018-03-28T01:07:51.900Z,7.20
2018-03-28T01:10:18.040Z,7.20
2018-03-28T01:12:44.178Z,7.30
2018-03-28T01:15:10.308Z,7.30
2018-03-28T01:17:38.854Z,7.30
2018-03-28T01:20:04.961Z,7.20
2018-03-28T01:22:31.086Z,7.20
2018-03-28T01:24:57.192Z,7.30
2018-03-28T01:27:23.270Z,7.30
2018-03-28T01:29:49.388Z,7.30
2018-03-28T01:32:15.514Z,7.40
2018-03-28T01:49:54.896Z,7.30
2018-03-28T01:52:21.037Z,7.30
2018-03-28T01:54:47.520Z,7.30
2018-03-28T01:57:13.605Z,7.30
2018-03-28T01:59:39.714Z,7.40
2018-03-28T02:02:05.817Z,7.40
2018-03-28T02:04:32.699Z,7.40
2018-03-28T02:06:58.815Z,7.40
2018-03-28T02:09:25.667Z,7.50
2018-03-28T02:11:51.779Z,7.40
2018-03-28T02:14:17.906Z,7.40
2018-03-28T02:16:45.645Z,7.50
2018-03-28T02:19:11.803Z,7.50
2018-03-28T02:21:37.895Z,7.50
2018-03-28T02:24:04.790Z,7.50
2018-03-28T02:26:30.916Z,7.50
2018-03-28T02:28:57.038Z,7.50
2018-03-28T02:31:29.676Z,7.50
2018-03-28T02:33:55.946Z,7.50
2018-03-28T02:36:22.062Z,7.50
2018-03-28T02:38:48.169Z,7.50
2018-03-28T02:41:14.275Z,7.60
2018-03-28T02:43:40.404Z,7.60
2018-03-28T02:46:06.519Z,7.50
2018-03-28T02:48:32.617Z,7.50
2018-03-28T02:50:58.712Z,7.40
2018-03-28T02:53:24.878Z,7.40
2018-03-28T02:55:51.744Z,7.40
2018-03-28T02:58:18.590Z,7.50
2018-03-28T03:00:48.578Z,7.40
2018-03-28T03:03:15.822Z,7.40
2018-03-28T03:05:41.916Z,7.50
2018-03-28T03:08:08.028Z,7.50
2018-03-28T03:10:34.147Z,7.50
2018-03-28T03:13:00.259Z,7.40
2018-03-28T03:15:26.385Z,7.50
2018-03-28T03:17:53.257Z,7.50
2018-03-28T03:20:19.392Z,7.50
2018-03-28T03:22:45.536Z,7.50
2018-03-28T03:25:11.643Z,7.50
2018-03-28T03:27:38.532Z,7.50
2018-03-28T03:30:04.652Z,7.50
2018-03-28T03:32:31.486Z,7.60
2018-03-28T03:34:57.587Z,7.60
2018-03-28T03:37:23.735Z,7.60
2018-03-28T03:39:49.875Z,7.60
2018-03-28T03:42:16.007Z,7.50
2018-03-28T03:44:42.142Z,7.50
2018-03-28T03:47:08.258Z,7.50
2018-03-28T03:49:34.354Z,7.60
2018-03-28T03:52:00.480Z,7.60
2018-03-28T03:54:26.601Z,7.60
2018-03-28T03:56:52.731Z,7.60
2018-03-28T03:59:18.840Z,7.60
2018-03-28T04:01:45.677Z,7.60
2018-03-28T04:04:12.526Z,7.60
2018-03-28T04:06:38.665Z,7.60
2018-03-28T04:09:05.544Z,7.60
2018-03-28T04:11:31.679Z,7.60
2018-03-28T04:13:57.839Z,7.60
2018-03-28T04:16:23.944Z,7.60
2018-03-28T04:18:50.084Z,7.60
2018-03-28T04:21:16.992Z,7.70
2018-03-28T04:23:43.128Z,7.60
2018-03-28T04:26:09.257Z,7.60
2018-03-28T04:28:35.466Z,7.60
2018-03-28T04:31:01.532Z,7.60
2018-03-28T04:33:27.649Z,7.70
2018-03-28T04:35:54.471Z,7.60
2018-03-28T04:38:20.589Z,7.60
2018-03-28T04:40:46.706Z,7.60
2018-03-28T04:43:12.818Z,7.60
2018-03-28T04:45:39.698Z,7.70
2018-03-28T04:48:05.802Z,7.70
2018-03-28T04:50:35.002Z,7.70
2018-03-28T04:53:02.053Z,7.80
2018-03-28T04:55:28.236Z,7.70
2018-03-28T04:57:54.368Z,7.80
2018-03-28T05:00:20.497Z,7.80
2018-03-28T05:02:47.336Z,7.90
2018-03-28T05:05:13.470Z,7.80
2018-03-28T05:07:39.589Z,7.90
2018-03-28T05:10:05.722Z,7.90
2018-03-28T05:12:31.843Z,7.80
2018-03-28T05:14:57.959Z,7.80
2018-03-28T05:17:24.081Z,7.80
2018-03-28T05:19:51.032Z,7.70
2018-03-28T05:22:19.231Z,7.70
2018-03-28T05:24:45.882Z,7.70
2018-03-28T05:27:12.039Z,7.70
2018-03-28T05:29:38.127Z,7.70
2018-03-28T05:32:04.275Z,7.70
2018-03-28T05:34:30.446Z,7.60
2018-03-28T05:36:56.583Z,7.60
2018-03-28T05:39:22.719Z,7.60
2018-03-28T05:41:48.860Z,7.60
2018-03-28T05:44:14.957Z,7.60
2018-03-28T05:46:41.112Z,7.60
2018-03-28T05:49:07.214Z,7.50
2018-03-28T05:51:33.329Z,7.50
2018-03-28T05:53:59.460Z,7.50
2018-03-28T05:56:25.615Z,7.60
2018-03-28T05:58:51.723Z,7.60
2018-03-28T06:01:18.595Z,7.50
2018-03-28T06:03:45.420Z,7.60
2018-03-28T06:06:12.362Z,7.50
2018-03-28T06:08:38.605Z,7.60
2018-03-28T06:11:04.733Z,7.60
2018-03-28T06:13:30.962Z,7.60
2018-03-28T06:15:57.145Z,7.60
2018-03-28T06:18:24.162Z,7.50
2018-03-28T06:20:51.020Z,7.50
2018-03-28T06:23:17.189Z,7.50
2018-03-28T06:25:45.205Z,7.50
2018-03-28T06:28:11.315Z,7.50
2018-03-28T06:30:37.522Z,7.50
2018-03-28T06:33:03.724Z,7.50
2018-03-28T06:35:32.319Z,7.60
2018-03-28T06:37:58.580Z,7.60
2018-03-28T06:40:24.812Z,7.60
2018-03-28T06:45:54.809Z,7.60
2018-03-28T06:48:22.002Z,7.60
2018-03-28T06:50:49.078Z,7.60
2018-03-28T06:53:17.302Z,7.60
2018-03-28T06:55:43.770Z,7.70
2018-03-28T06:58:10.108Z,7.70
2018-03-28T07:00:36.734Z,7.70
2018-03-28T07:03:03.090Z,7.70
2018-03-28T07:05:29.447Z,7.80
2018-03-28T07:07:56.689Z,7.90
2018-03-28T07:10:24.339Z,7.90
2018-03-28T07:12:51.958Z,8.00
2018-03-28T07:15:19.357Z,8.10
2018-03-28T07:17:46.477Z,8.10
2018-03-28T07:20:13.726Z,8.20
2018-03-28T07:22:40.180Z,8.20
2018-03-28T07:25:06.730Z,8.30
2018-03-28T07:27:34.060Z,8.30
2018-03-28T07:30:00.416Z,8.30
2018-03-28T07:32:26.791Z,8.30
2018-03-28T07:34:53.286Z,8.30
2018-03-28T07:37:21.041Z,8.50
2018-03-28T07:39:48.267Z,8.50
2018-03-28T07:42:15.402Z,8.60
2018-03-28T07:44:42.001Z,8.50
2018-03-28T07:47:10.377Z,8.50
2018-03-28T07:49:36.886Z,8.50
2018-03-28T07:52:03.458Z,8.50
2018-03-28T07:54:29.700Z,8.40
2018-03-28T07:57:16.348Z,8.40
2018-03-28T07:59:42.592Z,8.40
2018-03-28T08:02:08.826Z,8.40
2018-03-28T08:04:48.776Z,8.50
2018-03-28T08:07:15.165Z,8.50
2018-03-28T08:09:41.372Z,8.50
2018-03-28T08:12:07.579Z,8.50
2018-03-28T08:14:33.777Z,8.50
2018-03-28T08:16:59.961Z,8.50
2018-03-28T08:19:26.085Z,8.50
2018-03-28T08:21:53.031Z,8.50
2018-03-28T08:24:19.989Z,8.60
2018-03-28T08:26:46.965Z,8.70
2018-03-28T08:29:13.172Z,8.70
2018-03-28T08:31:39.309Z,8.70
2018-03-28T08:34:05.444Z,8.70
2018-03-28T08:36:31.570Z,8.80
2018-03-28T08:38:58.729Z,8.80
2018-03-28T08:41:24.873Z,8.80
2018-03-28T08:43:51.047Z,8.70
2018-03-28T08:46:17.149Z,8.70
2018-03-28T08:48:43.299Z,8.70
2018-03-28T08:51:09.392Z,8.70
2018-03-28T08:53:35.548Z,8.70
2018-03-28T08:56:01.687Z,8.80
2018-03-28T08:58:27.827Z,8.80
2018-03-28T09:00:53.954Z,8.90
2018-03-28T09:03:20.064Z,8.90
2018-03-28T09:05:46.187Z,9.00
2018-03-28T09:08:16.763Z,9.00
2018-03-28T09:10:42.935Z,9.00
2018-03-28T09:13:09.065Z,9.10
2018-03-28T09:15:35.189Z,9.10
2018-03-28T09:18:01.329Z,9.20
2018-03-28T09:20:35.328Z,9.30
2018-03-28T09:23:01.509Z,9.30
2018-03-28T09:25:32.934Z,9.30
2018-03-28T09:27:59.207Z,9.40
2018-03-28T09:30:25.309Z,9.40
2018-03-28T09:32:52.201Z,9.40
2018-03-28T09:35:19.165Z,9.60
2018-03-28T09:37:45.371Z,9.50
2018-03-28T09:40:12.431Z,9.80
2018-03-28T09:42:39.376Z,9.90
2018-03-28T09:45:08.176Z,9.90
2018-03-28T09:47:37.119Z,9.90
2018-03-28T09:50:03.373Z,10.00
2018-03-28T09:52:29.539Z,10.20
2018-03-28T09:54:55.711Z,10.40
2018-03-28T09:57:22.659Z,10.80
2018-03-28T09:59:48.778Z,10.90
2018-03-28T10:02:15.980Z,11.00
2018-03-28T10:04:48.706Z,11.10
2018-03-28T10:07:16.934Z,11.40
2018-03-28T10:09:43.310Z,11.50
2018-03-28T10:12:10.295Z,11.70
2018-03-28T10:14:36.517Z,11.60
2018-03-28T10:17:02.733Z,11.90
2018-03-28T10:22:36.471Z,11.80
2018-03-28T10:25:02.800Z,11.70
2018-03-28T10:30:31.401Z,11.80
2018-03-28T10:32:57.775Z,11.80
2018-03-28T10:35:25.123Z,11.70
2018-03-28T10:37:51.588Z,11.60
2018-03-28T10:40:18.029Z,11.40
2018-03-28T10:42:45.025Z,11.40
2018-03-28T10:48:14.512Z,11.40
2018-03-28T10:50:48.484Z,11.30
2018-03-28T10:53:15.188Z,11.30
2018-03-28T10:55:41.395Z,11.40
2018-03-28T10:58:15.577Z,11.60
2018-03-28T11:00:43.299Z,11.50
2018-03-28T11:03:11.191Z,11.40
2018-03-28T11:05:37.363Z,11.40
2018-03-28T11:08:03.570Z,11.30
2018-03-28T11:10:29.689Z,11.20
2018-03-28T11:12:55.927Z,10.90
2018-03-28T11:15:22.139Z,10.70
2018-03-28T11:17:48.263Z,10.50
2018-03-28T11:20:14.447Z,10.60
2018-03-28T11:22:40.579Z,10.70
2018-03-28T11:25:06.771Z,10.90
2018-03-28T11:27:35.352Z,10.90
2018-03-28T11:30:01.653Z,11.00
2018-03-28T11:32:27.822Z,11.20
2018-03-28T11:35:00.221Z,11.30
2018-03-28T11:37:27.409Z,11.20
2018-03-28T11:39:53.535Z,11.10
2018-03-28T11:42:20.740Z,11.20
2018-03-28T11:44:48.933Z,11.20
2018-03-28T11:47:15.271Z,11.20
2018-03-28T11:49:41.732Z,11.20
2018-03-28T11:52:08.673Z,11.10
2018-03-28T11:54:35.143Z,11.10
2018-03-28T11:57:01.316Z,10.90
2018-03-28T11:59:27.532Z,10.70
2018-03-28T12:01:59.124Z,10.50
2018-03-28T12:04:27.387Z,10.50
2018-03-28T12:06:56.418Z,10.50
2018-03-28T12:09:22.578Z,10.50
2018-03-28T12:11:49.531Z,10.30
2018-03-28T12:14:15.698Z,10.20
2018-03-28T12:16:41.854Z,10.00
2018-03-28T12:19:08.288Z,10.00
2018-03-28T12:21:34.436Z,10.00
2018-03-28T12:24:00.544Z,10.10
2018-03-28T12:26:26.692Z,10.20
2018-03-28T12:28:53.282Z,10.30
2018-03-28T12:31:19.426Z,10.40
2018-03-28T12:33:46.372Z,10.30
2018-03-28T12:36:13.521Z,10.20
2018-03-28T12:38:39.769Z,10.20
2018-03-28T12:41:05.916Z,10.20
2018-03-28T12:43:32.085Z,10.10
2018-03-28T12:45:58.215Z,10.10
2018-03-28T12:48:25.145Z,10.20
2018-03-28T12:50:57.363Z,10.20
2018-03-28T12:53:23.524Z,10.10
2018-03-28T12:55:51.367Z,9.90
2018-03-28T12:58:17.832Z,9.70
2018-03-28T13:00:44.199Z,9.50
2018-03-28T13:03:10.452Z,9.50
2018-03-28T13:08:25.151Z,9.30
2018-03-28T13:10:51.269Z,9.10
2018-03-28T13:13:17.465Z,9.10
2018-03-28T13:15:43.644Z,9.10
2018-03-28T13:18:09.877Z,9.20
2018-03-28T13:20:36.094Z,9.20
2018-03-28T13:23:02.252Z,9.20
2018-03-28T13:25:28.396Z,9.20
2018-03-28T13:27:55.380Z,9.10
2018-03-28T13:30:21.719Z,9.10
2018-03-28T13:32:50.606Z,9.10
2018-03-28T13:35:16.844Z,9.00
2018-03-28T13:37:44.467Z,9.00
2018-03-28T13:40:12.234Z,8.90
2018-03-28T13:42:38.872Z,8.90
2018-03-28T13:45:05.019Z,8.90
2018-03-28T13:47:31.991Z,8.90
2018-03-28T13:49:58.142Z,8.90
2018-03-28T13:52:24.360Z,8.80
2018-03-28T13:54:51.389Z,8.80
2018-03-28T13:57:17.631Z,8.80
2018-03-28T13:59:43.806Z,9.00
2018-03-28T14:02:10.053Z,9.00
2018-03-28T14:04:36.203Z,9.00
2018-03-28T14:07:03.219Z,8.90
2018-03-28T14:09:30.233Z,8.80
2018-03-28T14:11:56.507Z,8.80
2018-03-28T14:14:22.755Z,8.70
2018-03-28T14:16:49.771Z,8.80
2018-03-28T14:19:16.773Z,8.70
2018-03-28T14:21:43.015Z,8.70
2018-03-28T14:24:09.111Z,8.80
2018-03-28T14:26:35.261Z,8.80
2018-03-28T14:29:01.471Z,8.80
2018-03-28T14:31:27.778Z,8.80
2018-03-28T14:33:54.183Z,8.70
2018-03-28T14:36:21.127Z,8.70
2018-03-28T14:38:47.571Z,8.70
2018-03-28T14:41:14.773Z,8.70
2018-03-28T14:43:41.651Z,8.60
2018-03-28T14:46:07.792Z,8.60
2018-03-28T14:48:34.056Z,8.60
2018-03-28T14:51:00.275Z,8.50
2018-03-28T14:53:26.377Z,8.50
2018-03-28T14:55:53.384Z,8.60
2018-03-28T14:58:19.576Z,8.60
2018-03-28T15:00:47.244Z,8.70
2018-03-28T15:03:13.398Z,8.80
2018-03-28T15:05:39.607Z,8.80
2018-03-28T15:08:05.764Z,8.80
2018-03-28T15:10:32.724Z,8.90
2018-03-28T15:12:59.640Z,9.00
2018-03-28T15:15:25.793Z,9.00
2018-03-28T15:17:51.907Z,9.10
2018-03-28T15:20:18.097Z,9.10
2018-03-28T15:22:44.308Z,9.20
2018-03-28T15:25:10.460Z,9.10
2018-03-28T15:27:36.617Z,9.20
2018-03-28T15:30:02.854Z,9.20
2018-03-28T15:32:28.997Z,9.20
2018-03-28T15:34:55.185Z,9.20
2018-03-28T15:37:21.381Z,9.10
2018-03-28T15:39:47.674Z,9.20
2018-03-28T15:42:14.604Z,9.70
2018-03-28T15:44:40.705Z,9.70
2018-03-28T15:47:08.100Z,9.70
2018-03-28T15:49:34.284Z,9.50
2018-03-28T15:52:00.458Z,9.40
2018-03-28T15:54:26.624Z,9.30
2018-03-28T15:56:53.534Z,9.30
2018-03-28T15:59:19.653Z,9.30
2018-03-28T16:01:45.786Z,9.30
2018-03-28T16:04:12.051Z,9.30
2018-03-28T16:06:38.155Z,9.30
2018-03-28T16:09:05.140Z,9.20
2018-03-28T16:11:31.366Z,9.20
2018-03-28T16:13:57.601Z,9.20
2018-03-28T16:16:24.420Z,9.10
2018-03-28T16:18:51.438Z,9.00
2018-03-28T16:21:17.643Z,9.00
2018-03-28T16:23:43.795Z,9.00
2018-03-28T16:26:09.997Z,8.90
2018-03-28T16:28:36.813Z,8.90
2018-03-28T16:31:04.345Z,8.90
2018-03-28T16:33:30.587Z,9.00
2018-03-28T16:35:56.810Z,9.00
2018-03-28T16:38:23.797Z,9.00
2018-03-28T16:43:26.788Z,9.00
2018-03-28T16:45:52.850Z,8.90
2018-03-28T16:48:19.605Z,9.00
2018-03-28T16:50:45.852Z,9.00
2018-03-28T16:53:11.989Z,9.00
2018-03-28T16:55:38.137Z,9.00
2018-03-28T16:58:04.309Z,9.00
2018-03-28T17:00:31.175Z,9.00
2018-03-28T17:02:58.070Z,9.10
2018-03-28T17:05:24.193Z,9.00
2018-03-28T17:07:50.404Z,9.00
2018-03-28T17:10:16.767Z,9.00
2018-03-28T17:12:42.935Z,9.00
2018-03-28T17:15:09.872Z,9.00
2018-03-28T17:17:36.075Z,9.00
2018-03-28T17:20:02.282Z,9.00
2018-03-28T17:22:28.468Z,9.00
2018-03-28T17:24:54.550Z,8.90
2018-03-28T17:27:20.779Z,8.90
2018-03-28T17:29:46.975Z,8.90
2018-03-28T17:32:13.228Z,8.90
2018-03-28T17:34:39.561Z,9.00
2018-03-28T17:37:05.834Z,9.00
2018-03-28T17:39:32.841Z,8.90
2018-03-28T17:41:59.038Z,8.90
2018-03-28T17:44:25.971Z,8.90
2018-03-28T17:46:52.260Z,8.80
2018-03-28T17:49:18.483Z,8.90
2018-03-28T17:51:44.589Z,8.90
2018-03-28T17:54:10.735Z,8.90
2018-03-28T17:56:37.984Z,8.80
2018-03-28T17:59:04.263Z,8.70
2018-03-28T18:01:32.904Z,8.70
2018-03-28T18:03:59.158Z,8.70
2018-03-28T18:06:25.351Z,8.80
2018-03-28T18:08:51.611Z,8.80
2018-03-28T18:11:17.939Z,8.90
2018-03-28T18:13:45.636Z,9.00
2018-03-28T18:16:11.816Z,8.90
2018-03-28T18:18:38.106Z,9.00
2018-03-28T18:21:04.343Z,9.10
2018-03-28T18:23:31.382Z,9.10
2018-03-28T18:25:58.349Z,9.10
2018-03-28T18:28:24.499Z,9.10
2018-03-28T18:30:50.706Z,9.20
2018-03-28T18:33:16.866Z,9.10
2018-03-28T18:35:43.295Z,9.10
2018-03-28T18:38:09.485Z,9.00
2018-03-28T18:40:35.627Z,9.00
2018-03-28T18:43:01.868Z,9.00
2018-03-28T18:45:28.310Z,9.00
2018-03-28T18:47:54.470Z,9.00
2018-03-28T18:50:20.649Z,9.00
2018-03-28T18:52:46.864Z,8.90
2018-03-28T18:55:13.027Z,8.80
2018-03-28T18:57:39.210Z,8.70
2018-03-28T19:00:05.447Z,8.60
2018-03-28T19:02:31.892Z,8.40
2018-03-28T19:04:58.104Z,8.20
2018-03-28T19:07:25.335Z,7.70
2018-03-28T19:09:51.490Z,7.70
2018-03-28T19:12:17.845Z,7.50
2018-03-28T19:14:44.008Z,7.30
2018-03-28T19:17:10.876Z,7.10
2018-03-28T19:19:37.747Z,7.10
2018-03-28T19:22:03.900Z,7.10
2018-03-28T19:24:30.059Z,7.10
2018-03-28T19:26:56.165Z,7.00
2018-03-28T19:29:22.455Z,6.90
2018-03-28T19:31:48.655Z,6.80
2018-03-28T19:34:14.812Z,6.80
2018-03-28T19:36:41.120Z,6.70
2018-03-28T19:39:07.221Z,6.60
2018-03-28T19:41:33.401Z,6.50
2018-03-28T19:43:59.612Z,6.50
2018-03-28T19:46:25.771Z,6.50
2018-03-28T19:48:59.496Z,6.50
2018-03-28T19:51:25.707Z,6.40
2018-03-28T19:53:52.661Z,6.40
2018-03-28T19:56:19.638Z,6.30
2018-03-28T19:58:46.599Z,6.30
2018-03-28T20:01:12.842Z,6.30
2018-03-28T20:03:39.946Z,6.20
2018-03-28T20:06:06.314Z,6.20
2018-03-28T20:08:32.532Z,6.20
2018-03-28T20:10:58.741Z,6.20
2018-03-28T20:13:24.887Z,6.10
2018-03-28T20:15:51.157Z,6.10
2018-03-28T20:18:17.698Z,6.10
2018-03-28T20:20:43.913Z,6.00
2018-03-28T20:23:10.023Z,5.90
2018-03-28T20:25:36.287Z,5.90
2018-03-28T20:28:02.452Z,5.90
2018-03-28T20:30:28.948Z,5.90
2018-03-28T20:32:55.081Z,5.90
2018-03-28T20:35:22.011Z,5.90
2018-03-28T20:37:48.141Z,5.80
2018-03-28T20:40:14.273Z,5.90
2018-03-28T20:42:40.542Z,5.80
2018-03-28T20:45:06.699Z,5.70
2018-03-28T20:47:33.538Z,5.60
2018-03-28T20:49:59.671Z,5.60
2018-03-28T20:52:26.958Z,5.50
2018-03-28T20:54:53.147Z,5.50
2018-03-28T20:57:19.453Z,5.40
2018-03-28T20:59:46.323Z,5.40
2018-03-28T21:02:16.718Z,5.40
2018-03-28T21:04:42.847Z,5.40
2018-03-28T21:07:08.943Z,5.30
2018-03-28T21:09:35.067Z,5.20
2018-03-28T21:12:01.928Z,5.10
2018-03-28T21:14:28.383Z,5.10
2018-03-28T21:16:54.554Z,5.00
2018-03-28T21:19:20.683Z,5.00
2018-03-28T21:21:46.829Z,4.90
2018-03-28T21:24:12.991Z,4.90
2018-03-28T21:26:39.116Z,4.90
2018-03-28T21:29:05.221Z,4.90
2018-03-28T21:31:31.408Z,4.80
2018-03-28T21:33:57.531Z,4.80
2018-03-28T21:36:23.630Z,4.70
2018-03-28T21:38:49.746Z,4.70
2018-03-28T21:41:17.431Z,4.60
2018-03-28T21:43:44.302Z,4.60
2018-03-28T21:46:11.097Z,4.50
2018-03-28T21:48:37.472Z,4.50
2018-03-28T21:51:04.305Z,4.30
2018-03-28T21:53:30.480Z,4.30
2018-03-28T21:59:00.231Z,4.20
2018-03-28T22:01:26.335Z,4.20
2018-03-28T22:03:52.440Z,4.20
2018-03-28T22:06:18.572Z,4.30
2018-03-28T22:08:44.678Z,4.30
2018-03-28T22:11:10.855Z,4.30
2018-03-28T22:13:37.738Z,4.30
2018-03-28T22:16:03.867Z,4.30
2018-03-28T22:18:30.048Z,4.30
2018-03-28T22:20:56.134Z,4.30
2018-03-28T22:23:22.981Z,4.30
2018-03-28T22:25:49.829Z,4.30
2018-03-28T22:28:15.910Z,4.30
2018-03-28T22:30:42.027Z,4.30
2018-03-28T22:33:08.375Z,4.30
2018-03-28T22:35:34.485Z,4.10
2018-03-28T22:38:00.590Z,3.90
2018-03-28T22:40:26.697Z,3.70
2018-03-28T22:42:52.814Z,3.60
2018-03-28T22:45:19.655Z,3.60
2018-03-28T22:47:45.732Z,3.60
2018-03-28T22:50:12.667Z,3.70
2018-03-28T22:52:38.717Z,3.60
2018-03-28T22:55:04.859Z,3.70
2018-03-28T22:57:30.992Z,3.70
2018-03-28T22:59:57.126Z,3.70
2018-03-28T23:02:23.245Z,3.70
2018-03-28T23:04:50.090Z,3.80
2018-03-28T23:07:16.219Z,3.80
2018-03-28T23:09:42.334Z,3.80
2018-03-28T23:12:08.463Z,3.80
2018-03-28T23:14:34.570Z,3.80
2018-03-28T23:17:01.439Z,3.80
2018-03-28T23:19:27.574Z,3.80
2018-03-28T23:21:53.679Z,3.80
2018-03-28T23:24:19.783Z,3.80
2018-03-28T23:26:45.895Z,3.90
2018-03-28T23:29:12.010Z,3.90
2018-03-28T23:31:38.864Z,3.80
2018-03-28T23:34:05.704Z,3.90
2018-03-28T23:36:31.847Z,3.90
2018-03-28T23:38:57.967Z,3.90
2018-03-28T23:41:24.131Z,3.90
2018-03-28T23:43:50.991Z,3.90
2018-03-28T23:46:17.135Z,3.90
2018-03-28T23:48:43.268Z,3.90
2018-03-28T23:51:10.117Z,3.90
2018-03-28T23:53:36.982Z,3.90
2018-03-28T23:56:03.115Z,3.90
2018-03-28T23:58:29.204Z,3.90
